sensor_id;sensor_type;location;lat;lon;timestamp;pressure;altitude;pressure_sealevel;temperature;humidity
61908;BME280;47864;52.526;19.672;2023-07-30T00:00:39;153602.44;;;18.37;100.00
61908;BME280;47864;52.526;19.672;2023-07-30T00:02:41;153643.13;;;18.53;100.00
61908;BME280;47864;52.526;19.672;2023-07-30T00:04:43;153629.16;;;18.48;100.00
61908;BME280;47864;52.526;19.672;2023-07-30T00:06:44;153617.75;;;18.43;100.00
61908;BME280;47864;52.526;19.672;2023-07-30T00:08:46;153638.06;;;18.51;100.00
61908;BME280;47864;52.526;19.672;2023-07-30T00:10:47;153608.81;;;18.40;100.00
61908;BME280;47864;52.526;19.672;2023-07-30T00:12:49;153646.94;;;18.55;100.00
61908;BME280;47864;52.526;19.672;2023-07-30T00:14:50;153639.34;;;18.52;100.00
61908;BME280;47864;52.526;19.672;2023-07-30T00:16:52;153630.44;;;18.48;100.00
61908;BME280;47864;52.526;19.672;2023-07-30T00:18:53;153573.25;;;18.25;100.00
61908;BME280;47864;52.526;19.672;2023-07-30T00:20:55;153550.38;;;18.16;100.00
61908;BME280;47864;52.526;19.672;2023-07-30T00:22:56;153549.09;;;18.16;100.00
61908;BME280;47864;52.526;19.672;2023-07-30T00:24:58;153585.94;;;18.31;100.00
61908;BME280;47864;52.526;19.672;2023-07-30T00:26:59;153594.84;;;18.34;100.00
61908;BME280;47864;52.526;19.672;2023-07-30T00:29:01;153575.78;;;18.27;100.00
61908;BME280;47864;52.526;19.672;2023-07-30T00:31:02;153580.84;;;18.29;100.00
61908;BME280;47864;52.526;19.672;2023-07-30T00:33:04;153611.38;;;18.41;100.00
61908;BME280;47864;52.526;19.672;2023-07-30T00:35:06;153617.75;;;18.43;100.00
61908;BME280;47864;52.526;19.672;2023-07-30T00:37:08;153605.00;;;18.38;100.00
61908;BME280;47864;52.526;19.672;2023-07-30T00:39:10;153629.16;;;18.48;100.00
61908;BME280;47864;52.526;19.672;2023-07-30T00:41:11;153620.28;;;18.44;100.00
61908;BME280;47864;52.526;19.672;2023-07-30T00:43:13;153653.38;;;18.57;100.00
61908;BME280;47864;52.526;19.672;2023-07-30T00:45:15;153676.25;;;18.67;100.00
61908;BME280;47864;52.526;19.672;2023-07-30T00:47:16;153648.22;;;18.55;100.00
61908;BME280;47864;52.526;19.672;2023-07-30T00:49:18;153666.06;;;18.62;100.00
61908;BME280;47864;52.526;19.672;2023-07-30T00:51:20;153666.06;;;18.62;100.00
61908;BME280;47864;52.526;19.672;2023-07-30T00:53:22;153724.59;;;18.86;100.00
61908;BME280;47864;52.526;19.672;2023-07-30T00:55:25;153697.88;;;18.75;100.00
61908;BME280;47864;52.526;19.672;2023-07-30T00:57:27;153714.38;;;18.82;100.00
61908;BME280;47864;52.526;19.672;2023-07-30T00:59:28;153650.81;;;18.56;100.00
61908;BME280;47864;52.526;19.672;2023-07-30T01:01:33;153671.16;;;18.65;100.00
61908;BME280;47864;52.526;19.672;2023-07-30T01:03:36;153699.16;;;18.76;100.00
61908;BME280;47864;52.526;19.672;2023-07-30T01:05:38;153680.06;;;18.68;100.00
61908;BME280;47864;52.526;19.672;2023-07-30T01:07:39;153702.97;;;18.77;100.00
61908;BME280;47864;52.526;19.672;2023-07-30T01:09:41;153701.69;;;18.77;100.00
61908;BME280;47864;52.526;19.672;2023-07-30T01:11:44;153709.28;;;18.80;100.00
61908;BME280;47864;52.526;19.672;2023-07-30T01:13:46;153724.59;;;18.86;100.00
61908;BME280;47864;52.526;19.672;2023-07-30T01:15:49;153720.75;;;18.84;100.00
61908;BME280;47864;52.526;19.672;2023-07-30T01:17:50;153725.81;;;18.86;100.00
61908;BME280;47864;52.526;19.672;2023-07-30T01:19:53;153730.91;;;18.88;100.00
61908;BME280;47864;52.526;19.672;2023-07-30T01:21:55;153738.56;;;18.91;100.00
61908;BME280;47864;52.526;19.672;2023-07-30T01:23:56;153716.94;;;18.83;100.00
61908;BME280;47864;52.526;19.672;2023-07-30T01:26:04;153742.38;;;18.93;100.00
61908;BME280;47864;52.526;19.672;2023-07-30T01:28:12;153755.06;;;18.98;100.00
61908;BME280;47864;52.526;19.672;2023-07-30T01:30:25;153760.16;;;19.00;100.00
61908;BME280;47864;52.526;19.672;2023-07-30T01:32:28;153730.91;;;18.88;100.00
61908;BME280;47864;52.526;19.672;2023-07-30T01:34:36;153699.16;;;18.76;100.00
61908;BME280;47864;52.526;19.672;2023-07-30T01:36:39;153711.84;;;18.81;100.00
61908;BME280;47864;52.526;19.672;2023-07-30T01:38:42;153714.38;;;18.82;100.00
61908;BME280;47864;52.526;19.672;2023-07-30T01:40:44;153680.06;;;18.68;100.00
61908;BME280;47864;52.526;19.672;2023-07-30T01:42:45;153627.88;;;18.47;100.00
61908;BME280;47864;52.526;19.672;2023-07-30T01:44:47;153676.25;;;18.67;100.00
61908;BME280;47864;52.526;19.672;2023-07-30T01:46:49;153673.72;;;18.66;100.00
61908;BME280;47864;52.526;19.672;2023-07-30T01:48:50;153667.34;;;18.63;100.00
61908;BME280;47864;52.526;19.672;2023-07-30T01:50:51;153655.91;;;18.58;100.00
61908;BME280;47864;52.526;19.672;2023-07-30T01:52:53;153640.63;;;18.52;100.00
61908;BME280;47864;52.526;19.672;2023-07-30T01:54:55;153658.47;;;18.59;100.00
61908;BME280;47864;52.526;19.672;2023-07-30T01:56:57;153640.63;;;18.52;100.00
61908;BME280;47864;52.526;19.672;2023-07-30T01:58:59;153627.88;;;18.47;100.00
61908;BME280;47864;52.526;19.672;2023-07-30T02:01:00;153634.25;;;18.50;100.00
61908;BME280;47864;52.526;19.672;2023-07-30T02:03:02;153650.81;;;18.56;100.00
61908;BME280;47864;52.526;19.672;2023-07-30T02:05:03;153655.91;;;18.58;100.00
61908;BME280;47864;52.526;19.672;2023-07-30T02:07:05;153622.78;;;18.45;100.00
61908;BME280;47864;52.526;19.672;2023-07-30T02:09:07;153599.97;;;18.36;100.00
61908;BME280;47864;52.526;19.672;2023-07-30T02:11:08;153584.66;;;18.30;100.00
61908;BME280;47864;52.526;19.672;2023-07-30T02:13:10;153622.78;;;18.45;100.00
61908;BME280;47864;52.526;19.672;2023-07-30T02:15:11;153556.75;;;18.19;100.00
61908;BME280;47864;52.526;19.672;2023-07-30T02:17:13;153550.38;;;18.16;100.00
61908;BME280;47864;52.526;19.672;2023-07-30T02:19:14;153571.97;;;18.25;100.00
61908;BME280;47864;52.526;19.672;2023-07-30T02:21:16;153494.47;;;17.94;100.00
61908;BME280;47864;52.526;19.672;2023-07-30T02:23:17;153514.81;;;18.02;100.00
61908;BME280;47864;52.526;19.672;2023-07-30T02:25:19;153569.44;;;18.24;100.00
61908;BME280;47864;52.526;19.672;2023-07-30T02:27:20;153574.53;;;18.26;100.00
61908;BME280;47864;52.526;19.672;2023-07-30T02:29:22;153563.06;;;18.21;100.00
61908;BME280;47864;52.526;19.672;2023-07-30T02:31:23;153565.59;;;18.22;100.00
61908;BME280;47864;52.526;19.672;2023-07-30T02:33:25;153481.72;;;17.89;100.00
61908;BME280;47864;52.526;19.672;2023-07-30T02:35:27;153512.25;;;18.01;100.00
61908;BME280;47864;52.526;19.672;2023-07-30T02:37:28;153522.38;;;18.05;100.00
61908;BME280;47864;52.526;19.672;2023-07-30T02:39:30;153488.09;;;17.92;100.00
61908;BME280;47864;52.526;19.672;2023-07-30T02:41:31;153516.06;;;18.03;100.00
61908;BME280;47864;52.526;19.672;2023-07-30T02:43:33;153538.91;;;18.12;100.00
61908;BME280;47864;52.526;19.672;2023-07-30T02:45:34;153516.06;;;18.03;100.00
61908;BME280;47864;52.526;19.672;2023-07-30T02:47:36;153540.19;;;18.12;100.00
61908;BME280;47864;52.526;19.672;2023-07-30T02:49:38;153540.19;;;18.12;100.00
61908;BME280;47864;52.526;19.672;2023-07-30T02:51:39;153561.78;;;18.21;100.00
61908;BME280;47864;52.526;19.672;2023-07-30T02:53:43;153561.78;;;18.21;100.00
61908;BME280;47864;52.526;19.672;2023-07-30T02:55:44;153522.38;;;18.05;100.00
61908;BME280;47864;52.526;19.672;2023-07-30T02:57:46;153517.34;;;18.03;100.00
61908;BME280;47864;52.526;19.672;2023-07-30T02:59:48;153463.94;;;17.82;100.00
61908;BME280;47864;52.526;19.672;2023-07-30T03:01:49;153513.53;;;18.02;100.00
61908;BME280;47864;52.526;19.672;2023-07-30T03:03:51;153556.75;;;18.19;100.00
61908;BME280;47864;52.526;19.672;2023-07-30T03:05:52;153584.66;;;18.30;100.00
61908;BME280;47864;52.526;19.672;2023-07-30T03:07:54;153528.75;;;18.08;100.00
61908;BME280;47864;52.526;19.672;2023-07-30T03:09:55;153502.06;;;17.97;100.00
61908;BME280;47864;52.526;19.672;2023-07-30T03:11:57;153505.88;;;17.99;100.00
61908;BME280;47864;52.526;19.672;2023-07-30T03:13:58;153510.97;;;18.01;100.00
61908;BME280;47864;52.526;19.672;2023-07-30T03:16:00;153500.78;;;17.97;100.00
61908;BME280;47864;52.526;19.672;2023-07-30T03:18:02;153504.59;;;17.98;100.00
61908;BME280;47864;52.526;19.672;2023-07-30T03:20:04;153513.53;;;18.02;100.00
61908;BME280;47864;52.526;19.672;2023-07-30T03:22:06;153485.56;;;17.91;100.00
61908;BME280;47864;52.526;19.672;2023-07-30T03:24:08;153486.81;;;17.91;100.00
61908;BME280;47864;52.526;19.672;2023-07-30T03:26:10;153498.25;;;17.96;100.00
61908;BME280;47864;52.526;19.672;2023-07-30T03:28:12;153481.72;;;17.89;100.00
61908;BME280;47864;52.526;19.672;2023-07-30T03:30:14;153513.53;;;18.02;100.00
61908;BME280;47864;52.526;19.672;2023-07-30T03:32:15;153466.50;;;17.83;100.00
61908;BME280;47864;52.526;19.672;2023-07-30T03:34:16;153504.59;;;17.98;100.00
61908;BME280;47864;52.526;19.672;2023-07-30T03:36:18;153507.16;;;17.99;100.00
61908;BME280;47864;52.526;19.672;2023-07-30T03:38:20;153516.06;;;18.03;100.00
61908;BME280;47864;52.526;19.672;2023-07-30T03:40:21;153530.03;;;18.08;100.00
61908;BME280;47864;52.526;19.672;2023-07-30T03:42:23;153510.97;;;18.01;100.00
61908;BME280;47864;52.526;19.672;2023-07-30T03:44:24;153490.66;;;17.93;100.00
61908;BME280;47864;52.526;19.672;2023-07-30T03:46:26;153521.13;;;18.05;100.00
61908;BME280;47864;52.526;19.672;2023-07-30T03:48:28;153536.41;;;18.11;100.00
61908;BME280;47864;52.526;19.672;2023-07-30T03:50:30;153547.81;;;18.15;100.00
61908;BME280;47864;52.526;19.672;2023-07-30T03:52:31;153556.75;;;18.19;100.00
61908;BME280;47864;52.526;19.672;2023-07-30T03:54:33;153585.94;;;18.31;100.00
61908;BME280;47864;52.526;19.672;2023-07-30T03:56:35;153605.00;;;18.38;100.00
61908;BME280;47864;52.526;19.672;2023-07-30T03:58:36;153587.22;;;18.31;100.00
61908;BME280;47864;52.526;19.672;2023-07-30T04:00:38;153626.63;;;18.47;100.00
61908;BME280;47864;52.526;19.672;2023-07-30T04:02:39;153620.28;;;18.44;100.00
61908;BME280;47864;52.526;19.672;2023-07-30T04:04:42;153620.28;;;18.44;100.00
61908;BME280;47864;52.526;19.672;2023-07-30T04:06:44;153617.75;;;18.43;100.00
61908;BME280;47864;52.526;19.672;2023-07-30T04:08:45;153624.06;;;18.46;100.00
61908;BME280;47864;52.526;19.672;2023-07-30T04:10:46;153645.69;;;18.54;100.00
61908;BME280;47864;52.526;19.672;2023-07-30T04:12:48;153648.22;;;18.55;100.00
61908;BME280;47864;52.526;19.672;2023-07-30T04:14:50;153645.69;;;18.54;100.00
61908;BME280;47864;52.526;19.672;2023-07-30T04:16:51;153645.69;;;18.54;100.00
61908;BME280;47864;52.526;19.672;2023-07-30T04:18:53;153681.34;;;18.69;100.00
61908;BME280;47864;52.526;19.672;2023-07-30T04:20:55;153649.50;;;18.56;100.00
61908;BME280;47864;52.526;19.672;2023-07-30T04:22:56;153676.25;;;18.67;100.00
61908;BME280;47864;52.526;19.672;2023-07-30T04:24:58;153691.50;;;18.73;100.00
61908;BME280;47864;52.526;19.672;2023-07-30T04:27:00;153709.28;;;18.80;100.00
61908;BME280;47864;52.526;19.672;2023-07-30T04:29:02;153700.41;;;18.76;100.00
61908;BME280;47864;52.526;19.672;2023-07-30T04:31:03;153718.22;;;18.83;100.00
61908;BME280;47864;52.526;19.672;2023-07-30T04:33:05;153708.00;;;18.79;100.00
61908;BME280;47864;52.526;19.672;2023-07-30T04:35:07;153701.69;;;18.77;100.00
61908;BME280;47864;52.526;19.672;2023-07-30T04:37:09;153654.63;;;18.58;100.00
61908;BME280;47864;52.526;19.672;2023-07-30T04:39:10;153649.50;;;18.56;100.00
61908;BME280;47864;52.526;19.672;2023-07-30T04:41:12;153677.53;;;18.67;100.00
61908;BME280;47864;52.526;19.672;2023-07-30T04:43:14;153668.63;;;18.63;100.00
61908;BME280;47864;52.526;19.672;2023-07-30T04:45:15;153659.75;;;18.60;100.00
61908;BME280;47864;52.526;19.672;2023-07-30T04:47:17;153672.44;;;18.65;100.00
61908;BME280;47864;52.526;19.672;2023-07-30T04:49:18;153603.72;;;18.38;100.00
61908;BME280;47864;52.526;19.672;2023-07-30T04:51:20;153643.13;;;18.53;100.00
61908;BME280;47864;52.526;19.672;2023-07-30T04:53:21;153626.63;;;18.47;100.00
61908;BME280;47864;52.526;19.672;2023-07-30T04:55:23;153661.00;;;18.60;100.00
61908;BME280;47864;52.526;19.672;2023-07-30T04:57:25;153661.00;;;18.60;100.00
61908;BME280;47864;52.526;19.672;2023-07-30T04:59:26;153699.16;;;18.76;100.00
61908;BME280;47864;52.526;19.672;2023-07-30T05:01:28;153662.28;;;18.61;100.00
61908;BME280;47864;52.526;19.672;2023-07-30T05:03:30;153653.38;;;18.57;100.00
61908;BME280;47864;52.526;19.672;2023-07-30T05:05:32;153669.88;;;18.64;100.00
61908;BME280;47864;52.526;19.672;2023-07-30T05:07:33;153673.72;;;18.66;100.00
61908;BME280;47864;52.526;19.672;2023-07-30T05:09:35;153653.38;;;18.57;100.00
61908;BME280;47864;52.526;19.672;2023-07-30T05:11:37;153622.78;;;18.45;100.00
61908;BME280;47864;52.526;19.672;2023-07-30T05:13:38;153700.41;;;18.76;100.00
61908;BME280;47864;52.526;19.672;2023-07-30T05:15:40;153691.50;;;18.73;100.00
61908;BME280;47864;52.526;19.672;2023-07-30T05:17:41;153732.19;;;18.89;100.00
61908;BME280;47864;52.526;19.672;2023-07-30T05:19:43;153727.09;;;18.87;100.00
61908;BME280;47864;52.526;19.672;2023-07-30T05:21:44;153742.38;;;18.93;100.00
61908;BME280;47864;52.526;19.672;2023-07-30T05:23:46;153704.19;;;18.78;100.00
61908;BME280;47864;52.526;19.672;2023-07-30T05:25:48;153666.06;;;18.62;100.00
61908;BME280;47864;52.526;19.672;2023-07-30T05:27:51;153680.06;;;18.68;100.00
61908;BME280;47864;52.526;19.672;2023-07-30T05:29:53;153620.28;;;18.44;100.00
61908;BME280;47864;52.526;19.672;2023-07-30T05:31:54;153702.97;;;18.77;100.00
61908;BME280;47864;52.526;19.672;2023-07-30T05:33:56;153739.81;;;18.92;100.00
61908;BME280;47864;52.526;19.672;2023-07-30T05:35:57;153729.63;;;18.88;100.00
61908;BME280;47864;52.526;19.672;2023-07-30T05:37:59;153747.44;;;18.95;100.00
61908;BME280;47864;52.526;19.672;2023-07-30T05:40:00;153780.53;;;19.08;100.00
61908;BME280;47864;52.526;19.672;2023-07-30T05:42:02;153785.63;;;19.10;100.00
61908;BME280;47864;52.526;19.672;2023-07-30T05:44:04;153758.91;;;18.99;100.00
61908;BME280;47864;52.526;19.672;2023-07-30T05:46:05;153800.84;;;19.16;100.00
61908;BME280;47864;52.526;19.672;2023-07-30T05:48:07;153895.00;;;19.54;100.00
61908;BME280;47864;52.526;19.672;2023-07-30T05:50:09;153931.88;;;19.68;100.00
61908;BME280;47864;52.526;19.672;2023-07-30T05:52:10;153884.84;;;19.50;100.00
61908;BME280;47864;52.526;19.672;2023-07-30T05:54:12;153882.31;;;19.49;100.00
61908;BME280;47864;52.526;19.672;2023-07-30T05:56:14;153909.03;;;19.59;100.00
61908;BME280;47864;52.526;19.672;2023-07-30T05:58:15;153947.19;;;19.74;100.00
61908;BME280;47864;52.526;19.672;2023-07-30T06:00:17;153958.63;;;19.79;100.00
61908;BME280;47864;52.526;19.672;2023-07-30T06:02:20;153965.00;;;19.82;100.00
61908;BME280;47864;52.526;19.672;2023-07-30T06:04:22;153998.06;;;19.95;100.00
61908;BME280;47864;52.526;19.672;2023-07-30T06:06:23;153902.66;;;19.57;100.00
61908;BME280;47864;52.526;19.672;2023-07-30T06:08:25;153905.22;;;19.58;100.00
61908;BME280;47864;52.526;19.672;2023-07-30T06:10:26;153933.16;;;19.69;100.00
61908;BME280;47864;52.526;19.672;2023-07-30T06:12:28;153965.00;;;19.82;100.00
61908;BME280;47864;52.526;19.672;2023-07-30T06:14:29;154031.16;;;20.08;100.00
61908;BME280;47864;52.526;19.672;2023-07-30T06:16:31;154017.13;;;20.02;100.00
61908;BME280;47864;52.526;19.672;2023-07-30T06:18:33;154045.16;;;20.13;100.00
61908;BME280;47864;52.526;19.672;2023-07-30T06:20:34;154038.78;;;20.11;100.00
61908;BME280;47864;52.526;19.672;2023-07-30T06:22:36;153975.16;;;19.86;100.00
61908;BME280;47864;52.526;19.672;2023-07-30T06:24:37;153999.31;;;19.95;100.00
61908;BME280;47864;52.526;19.672;2023-07-30T06:26:39;153990.44;;;19.92;100.00
61908;BME280;47864;52.526;19.672;2023-07-30T06:28:40;154001.88;;;19.96;100.00
61908;BME280;47864;52.526;19.672;2023-07-30T06:30:42;153980.25;;;19.88;100.00
61908;BME280;47864;52.526;19.672;2023-07-30T06:32:43;154027.34;;;20.06;100.00
61908;BME280;47864;52.526;19.672;2023-07-30T06:34:45;154013.34;;;20.01;100.00
61908;BME280;47864;52.526;19.672;2023-07-30T06:36:46;154018.41;;;20.03;100.00
61908;BME280;47864;52.526;19.672;2023-07-30T06:38:48;154019.69;;;20.03;100.00
61908;BME280;47864;52.526;19.672;2023-07-30T06:40:50;154051.53;;;20.16;100.00
61908;BME280;47864;52.526;19.672;2023-07-30T06:42:51;154075.72;;;20.26;100.00
61908;BME280;47864;52.526;19.672;2023-07-30T06:44:53;154115.22;;;20.41;100.00
61908;BME280;47864;52.526;19.672;2023-07-30T06:46:54;154192.84;;;20.72;100.00
61908;BME280;47864;52.526;19.672;2023-07-30T06:48:56;154180.06;;;20.67;100.00
61908;BME280;47864;52.526;19.672;2023-07-30T06:50:57;154070.59;;;20.24;100.00
61908;BME280;47864;52.526;19.672;2023-07-30T06:52:59;154138.13;;;20.50;100.00
61908;BME280;47864;52.526;19.672;2023-07-30T06:55:01;154162.25;;;20.60;100.00
61908;BME280;47864;52.526;19.672;2023-07-30T06:57:03;154138.13;;;20.50;100.00
61908;BME280;47864;52.526;19.672;2023-07-30T06:59:05;154099.91;;;20.35;100.00
61908;BME280;47864;52.526;19.672;2023-07-30T07:01:06;154138.13;;;20.50;100.00
61908;BME280;47864;52.526;19.672;2023-07-30T07:03:08;154066.78;;;20.22;100.00
61908;BME280;47864;52.526;19.672;2023-07-30T07:05:10;154023.50;;;20.05;100.00
61908;BME280;47864;52.526;19.672;2023-07-30T07:07:11;154043.88;;;20.13;100.00
61908;BME280;47864;52.526;19.672;2023-07-30T07:09:13;154034.94;;;20.09;100.00
61908;BME280;47864;52.526;19.672;2023-07-30T07:11:14;154154.66;;;20.57;100.00
61908;BME280;47864;52.526;19.672;2023-07-30T07:13:16;154214.47;;;20.81;100.00
61908;BME280;47864;52.526;19.672;2023-07-30T07:15:17;154299.78;;;21.15;100.00
61908;BME280;47864;52.526;19.672;2023-07-30T07:17:19;154353.31;;;21.36;100.00
61908;BME280;47864;52.526;19.672;2023-07-30T07:19:20;154299.78;;;21.15;100.00
61908;BME280;47864;52.526;19.672;2023-07-30T07:21:22;154382.63;;;21.48;100.00
61908;BME280;47864;52.526;19.672;2023-07-30T07:23:24;154349.47;;;21.35;100.00
61908;BME280;47864;52.526;19.672;2023-07-30T07:25:25;154416.97;;;21.61;100.00
61908;BME280;47864;52.526;19.672;2023-07-30T07:27:27;154459.03;;;21.78;100.00
61908;BME280;47864;52.526;19.672;2023-07-30T07:29:28;154425.94;;;21.65;100.00
61908;BME280;47864;52.526;19.672;2023-07-30T07:31:30;154427.19;;;21.66;100.00
61908;BME280;47864;52.526;19.672;2023-07-30T07:33:33;154455.19;;;21.77;100.00
61908;BME280;47864;52.526;19.672;2023-07-30T07:35:34;154547.00;;;22.13;100.00
61908;BME280;47864;52.526;19.672;2023-07-30T07:37:36;154566.09;;;22.21;100.00
61908;BME280;47864;52.526;19.672;2023-07-30T07:39:38;154562.25;;;22.19;100.00
61908;BME280;47864;52.526;19.672;2023-07-30T07:41:39;154517.66;;;22.01;100.00
61908;BME280;47864;52.526;19.672;2023-07-30T07:43:41;154504.91;;;21.96;100.00
61908;BME280;47864;52.526;19.672;2023-07-30T07:45:43;154512.56;;;21.99;100.00
61908;BME280;47864;52.526;19.672;2023-07-30T07:47:45;154566.09;;;22.21;100.00
61908;BME280;47864;52.526;19.672;2023-07-30T07:49:47;154578.81;;;22.26;100.00
61908;BME280;47864;52.526;19.672;2023-07-30T07:51:48;154609.41;;;22.38;100.00
61908;BME280;47864;52.526;19.672;2023-07-30T07:53:50;154465.41;;;21.81;100.00
61908;BME280;47864;52.526;19.672;2023-07-30T07:55:51;154507.50;;;21.97;100.00
61908;BME280;47864;52.526;19.672;2023-07-30T07:57:53;154591.59;;;22.31;100.00
61908;BME280;47864;52.526;19.672;2023-07-30T07:59:54;154691.00;;;22.70;100.00
61908;BME280;47864;52.526;19.672;2023-07-30T08:01:56;154627.25;;;22.45;100.00
61908;BME280;47864;52.526;19.672;2023-07-30T08:03:57;154675.72;;;22.64;100.00
61908;BME280;47864;52.526;19.672;2023-07-30T08:05:59;154777.72;;;23.05;100.00
61908;BME280;47864;52.526;19.672;2023-07-30T08:08:01;154870.78;;;23.42;100.00
61908;BME280;47864;52.526;19.672;2023-07-30T08:10:02;154907.78;;;23.57;100.00
61908;BME280;47864;52.526;19.672;2023-07-30T08:12:04;154990.69;;;23.89;100.00
61908;BME280;47864;52.526;19.672;2023-07-30T08:14:06;155013.66;;;23.99;100.00
61908;BME280;47864;52.526;19.672;2023-07-30T08:16:07;154918.03;;;23.61;100.00
61908;BME280;47864;52.526;19.672;2023-07-30T08:18:09;154891.22;;;23.50;100.00
61908;BME280;47864;52.526;19.672;2023-07-30T08:20:11;154886.06;;;23.48;100.00
61908;BME280;47864;52.526;19.672;2023-07-30T08:22:12;154822.31;;;23.23;100.00
61908;BME280;47864;52.526;19.672;2023-07-30T08:24:14;154812.13;;;23.19;100.00
61908;BME280;47864;52.526;19.672;2023-07-30T08:26:15;154861.88;;;23.38;100.00
61908;BME280;47864;52.526;19.672;2023-07-30T08:28:17;154930.75;;;23.66;100.00
61908;BME280;47864;52.526;19.672;2023-07-30T08:30:19;154891.22;;;23.50;100.00
61908;BME280;47864;52.526;19.672;2023-07-30T08:32:20;155025.16;;;24.03;100.00
61908;BME280;47864;52.526;19.672;2023-07-30T08:34:22;155233.19;;;24.86;100.00
61908;BME280;47864;52.526;19.672;2023-07-30T08:36:24;155216.56;;;24.79;100.00
61908;BME280;47864;52.526;19.672;2023-07-30T08:38:25;155348.09;;;25.31;100.00
61908;BME280;47864;52.526;19.672;2023-07-30T08:40:27;155434.97;;;25.66;100.00
61908;BME280;47864;52.526;19.672;2023-07-30T08:42:28;155427.28;;;25.63;100.00
61908;BME280;47864;52.526;19.672;2023-07-30T08:44:30;155349.38;;;25.32;100.00
61908;BME280;47864;52.526;19.672;2023-07-30T08:46:32;155122.16;;;24.42;100.00
61908;BME280;47864;52.526;19.672;2023-07-30T08:48:34;155197.44;;;24.72;100.00
61908;BME280;47864;52.526;19.672;2023-07-30T08:50:36;155260.00;;;24.96;100.00
61908;BME280;47864;52.526;19.672;2023-07-30T08:52:38;155335.34;;;25.26;100.00
61908;BME280;47864;52.526;19.672;2023-07-30T08:54:41;155417.09;;;25.59;100.00
61908;BME280;47864;52.526;19.672;2023-07-30T08:56:42;155308.53;;;25.16;98.15
61908;BME280;47864;52.526;19.672;2023-07-30T08:58:44;155254.94;;;24.94;100.00
61908;BME280;47864;52.526;19.672;2023-07-30T09:00:47;155151.53;;;24.53;100.00
61908;BME280;47864;52.526;19.672;2023-07-30T09:02:59;154984.34;;;23.87;100.00
61908;BME280;47864;52.526;19.672;2023-07-30T09:05:01;155060.88;;;24.17;100.00
61908;BME280;47864;52.526;19.672;2023-07-30T09:07:04;155194.91;;;24.71;100.00
61908;BME280;47864;52.526;19.672;2023-07-30T09:09:10;155348.09;;;25.31;100.00
61908;BME280;47864;52.526;19.672;2023-07-30T09:11:12;155454.13;;;25.73;100.00
61908;BME280;47864;52.526;19.672;2023-07-30T09:13:20;155452.84;;;25.73;100.00
61908;BME280;47864;52.526;19.672;2023-07-30T09:15:32;155461.81;;;25.76;99.36
61908;BME280;47864;52.526;19.672;2023-07-30T09:17:35;155580.56;;;26.24;95.45
61908;BME280;47864;52.526;19.672;2023-07-30T09:19:36;155603.59;;;26.33;96.84
61908;BME280;47864;52.526;19.672;2023-07-30T09:21:38;155449.00;;;25.71;92.03
61908;BME280;47864;52.526;19.672;2023-07-30T09:23:46;155215.34;;;24.79;98.60
61908;BME280;47864;52.526;19.672;2023-07-30T09:25:48;155179.56;;;24.64;98.34
61908;BME280;47864;52.526;19.672;2023-07-30T09:27:51;155080.06;;;24.25;100.00
61908;BME280;47864;52.526;19.672;2023-07-30T09:29:54;154886.06;;;23.48;100.00
61908;BME280;47864;52.526;19.672;2023-07-30T09:31:55;154763.66;;;22.99;100.00
61908;BME280;47864;52.526;19.672;2023-07-30T09:33:57;154846.53;;;23.32;100.00
61908;BME280;47864;52.526;19.672;2023-07-30T09:36:02;154994.53;;;23.91;100.00
61908;BME280;47864;52.526;19.672;2023-07-30T09:38:03;155074.94;;;24.23;94.63
61908;BME280;47864;52.526;19.672;2023-07-30T09:40:07;155189.81;;;24.69;98.44
61908;BME280;47864;52.526;19.672;2023-07-30T09:42:09;155304.69;;;25.14;93.28
61908;BME280;47864;52.526;19.672;2023-07-30T09:44:11;155305.97;;;25.15;91.89
61908;BME280;47864;52.526;19.672;2023-07-30T09:46:13;155318.75;;;25.20;88.47
61908;BME280;47864;52.526;19.672;2023-07-30T09:48:15;155298.34;;;25.12;84.82
61908;BME280;47864;52.526;19.672;2023-07-30T09:50:17;155337.91;;;25.27;82.94
61908;BME280;47864;52.526;19.672;2023-07-30T09:52:20;155422.22;;;25.61;87.39
61908;BME280;47864;52.526;19.672;2023-07-30T09:54:22;155501.38;;;25.92;84.17
61908;BME280;47864;52.526;19.672;2023-07-30T09:56:24;155574.16;;;26.21;82.78
61908;BME280;47864;52.526;19.672;2023-07-30T09:58:25;155618.94;;;26.39;82.93
61908;BME280;47864;52.526;19.672;2023-07-30T10:00:29;155512.84;;;25.97;81.38
61908;BME280;47864;52.526;19.672;2023-07-30T10:02:31;155480.97;;;25.84;82.61
61908;BME280;47864;52.526;19.672;2023-07-30T10:04:33;155463.09;;;25.77;80.21
61908;BME280;47864;52.526;19.672;2023-07-30T10:06:42;155463.09;;;25.77;81.93
61908;BME280;47864;52.526;19.672;2023-07-30T10:08:46;155480.97;;;25.84;81.10
61908;BME280;47864;52.526;19.672;2023-07-30T10:10:49;155411.94;;;25.57;79.91
61908;BME280;47864;52.526;19.672;2023-07-30T10:12:52;155470.72;;;25.80;80.01
61908;BME280;47864;52.526;19.672;2023-07-30T10:14:54;155542.25;;;26.08;79.69
61908;BME280;47864;52.526;19.672;2023-07-30T10:16:59;155571.59;;;26.20;79.65
61908;BME280;47864;52.526;19.672;2023-07-30T10:19:01;155731.38;;;26.83;78.70
61908;BME280;47864;52.526;19.672;2023-07-30T10:21:03;155704.53;;;26.73;73.04